createdAt,value
2023-05-14T00:01:43.534Z,13.18
2023-05-14T00:04:11.736Z,14.93
2023-05-14T00:06:39.804Z,12.75
2023-05-14T00:09:08.178Z,11.90
2023-05-14T00:11:37.733Z,13.57
2023-05-14T00:14:06.085Z,14.23
2023-05-14T00:16:34.200Z,12.98
2023-05-14T00:19:02.479Z,14.93
2023-05-14T00:21:31.654Z,13.38
2023-05-14T00:23:59.709Z,12.82
2023-05-14T00:26:27.970Z,14.88
2023-05-14T00:28:57.517Z,14.73
2023-05-14T00:31:25.674Z,12.98
2023-05-14T00:33:54.040Z,15.45
2023-05-14T00:36:22.114Z,13.50
2023-05-14T00:38:50.545Z,17.08
2023-05-14T00:41:18.731Z,17.13
2023-05-14T00:43:46.776Z,16.77
2023-05-14T00:46:17.404Z,14.20
2023-05-14T00:48:46.185Z,16.55
2023-05-14T00:51:14.328Z,15.50
2023-05-14T00:53:42.884Z,16.35
2023-05-14T00:56:11.636Z,18.00
2023-05-14T00:58:39.724Z,15.60
2023-05-14T01:01:10.590Z,16.98
2023-05-14T01:03:44.120Z,14.90
2023-05-14T01:06:19.653Z,15.85
2023-05-14T01:09:00.663Z,14.82
2023-05-14T01:11:32.901Z,14.15
2023-05-14T01:14:07.520Z,17.55
2023-05-14T01:16:36.388Z,15.88
2023-05-14T01:19:21.428Z,19.20
2023-05-14T01:21:50.877Z,15.40
2023-05-14T01:24:18.922Z,14.05
2023-05-14T01:26:47.066Z,15.88
2023-05-14T01:29:20.908Z,15.40
2023-05-14T01:31:51.729Z,15.90
2023-05-14T01:34:25.584Z,16.80
2023-05-14T01:36:57.960Z,16.70
2023-05-14T01:39:27.116Z,18.42
2023-05-14T01:41:56.376Z,17.38
2023-05-14T01:44:25.270Z,19.27
2023-05-14T01:46:53.909Z,15.57
2023-05-14T01:49:21.953Z,15.48
2023-05-14T01:51:50.127Z,16.38
2023-05-14T01:54:19.554Z,16.05
2023-05-14T01:56:50.592Z,16.58
2023-05-14T01:59:18.695Z,16.23
2023-05-14T02:01:46.800Z,17.13
2023-05-14T02:04:15.056Z,15.80
2023-05-14T02:06:45.620Z,15.30
2023-05-14T02:09:14.074Z,19.83
2023-05-14T02:11:43.486Z,19.63
2023-05-14T02:14:15.376Z,18.00
2023-05-14T02:16:43.628Z,16.25
2023-05-14T02:19:11.762Z,18.98
2023-05-14T02:21:39.867Z,19.05
2023-05-14T02:24:08.126Z,15.52
2023-05-14T02:26:36.713Z,16.27
2023-05-14T02:29:06.391Z,18.27
2023-05-14T02:31:34.679Z,18.30
2023-05-14T02:34:03.338Z,15.98
2023-05-14T02:36:32.005Z,17.15
2023-05-14T02:39:01.156Z,18.30
2023-05-14T02:41:30.885Z,16.45
2023-05-14T02:43:59.236Z,19.48
2023-05-14T02:46:29.114Z,18.10
2023-05-14T02:48:57.640Z,17.75
2023-05-14T02:51:27.234Z,16.88
2023-05-14T02:53:55.621Z,19.58
2023-05-14T02:56:23.994Z,17.45
2023-05-14T02:58:52.606Z,19.30
2023-05-14T03:01:21.522Z,16.95
2023-05-14T03:03:51.920Z,16.75
2023-05-14T03:06:20.912Z,15.57
2023-05-14T03:08:49.323Z,18.35
2023-05-14T03:11:17.799Z,16.80
2023-05-14T03:13:46.402Z,14.38
2023-05-14T03:16:14.786Z,19.20
2023-05-14T03:18:42.905Z,20.05
2023-05-14T03:21:12.329Z,17.02
2023-05-14T03:23:41.893Z,18.23
2023-05-14T03:26:12.926Z,17.90
2023-05-14T03:28:41.478Z,15.30
2023-05-14T03:31:09.609Z,18.00
2023-05-14T03:33:37.795Z,21.00
2023-05-14T03:36:07.248Z,16.15
2023-05-14T03:38:36.935Z,19.35
2023-05-14T03:41:05.186Z,15.55
2023-05-14T03:43:33.223Z,16.52
2023-05-14T03:46:01.228Z,16.50
2023-05-14T03:48:29.491Z,17.92
2023-05-14T03:51:00.356Z,17.17
2023-05-14T03:53:28.520Z,18.30
2023-05-14T03:55:57.927Z,17.95
2023-05-14T03:58:26.140Z,15.48
2023-05-14T04:00:54.209Z,16.77
2023-05-14T04:03:25.628Z,18.52
2023-05-14T04:05:53.785Z,17.23
2023-05-14T04:08:21.832Z,19.23
2023-05-14T04:10:49.869Z,17.17
2023-05-14T04:13:19.392Z,17.27
2023-05-14T04:15:47.631Z,18.52
2023-05-14T04:18:15.717Z,18.05
2023-05-14T04:20:43.882Z,17.70
2023-05-14T04:23:11.978Z,19.60
2023-05-14T04:25:40.032Z,18.42
2023-05-14T04:28:08.079Z,19.65
2023-05-14T04:30:37.633Z,18.10
2023-05-14T04:33:06.549Z,20.55
2023-05-14T04:35:34.652Z,21.33
2023-05-14T04:38:03.143Z,21.30
2023-05-14T04:40:31.992Z,24.45
2023-05-14T04:43:00.152Z,22.60
2023-05-14T04:45:28.257Z,19.80
2023-05-14T04:47:57.776Z,21.25
2023-05-14T04:50:26.196Z,23.77
2023-05-14T04:52:55.871Z,23.40
2023-05-14T04:55:24.289Z,21.60
2023-05-14T04:57:52.392Z,23.67
2023-05-14T05:00:22.183Z,18.52
2023-05-14T05:02:50.837Z,20.73
2023-05-14T05:05:20.698Z,23.45
2023-05-14T05:07:48.890Z,21.83
2023-05-14T05:10:19.198Z,22.48
2023-05-14T05:12:47.277Z,19.77
2023-05-14T05:15:15.505Z,19.70
2023-05-14T05:17:44.108Z,23.65
2023-05-14T05:20:13.424Z,20.40
2023-05-14T05:22:42.895Z,21.83
2023-05-14T05:25:12.867Z,20.27
2023-05-14T05:27:41.059Z,19.42
2023-05-14T05:30:10.167Z,20.90
2023-05-14T05:32:38.939Z,22.30
2023-05-14T05:35:07.963Z,22.00
2023-05-14T05:37:36.002Z,23.23
2023-05-14T05:40:10.389Z,22.17
2023-05-14T05:42:38.551Z,20.45
2023-05-14T05:45:08.198Z,18.50
2023-05-14T05:47:36.267Z,20.90
2023-05-14T05:50:04.614Z,21.88
2023-05-14T05:52:32.742Z,22.42
2023-05-14T05:55:01.087Z,19.58
2023-05-14T05:57:30.536Z,18.08
2023-05-14T05:59:58.625Z,19.63
2023-05-14T06:02:27.063Z,17.55
2023-05-14T06:04:55.241Z,18.90
2023-05-14T06:07:23.370Z,19.55
2023-05-14T06:09:51.397Z,21.65
2023-05-14T06:12:19.481Z,19.48
2023-05-14T06:14:49.194Z,20.95
2023-05-14T06:17:17.256Z,19.38
2023-05-14T06:19:45.400Z,18.45
2023-05-14T06:22:14.760Z,18.63
2023-05-14T06:24:42.881Z,19.00
2023-05-14T06:27:11.460Z,19.92
2023-05-14T06:29:39.639Z,17.25
2023-05-14T06:32:10.506Z,17.55
2023-05-14T06:34:38.636Z,18.90
2023-05-14T06:37:07.137Z,18.10
2023-05-14T06:39:35.216Z,21.90
2023-05-14T06:42:03.578Z,17.88
2023-05-14T06:44:32.024Z,16.80
2023-05-14T06:47:00.133Z,17.48
2023-05-14T06:49:29.693Z,14.65
2023-05-14T06:51:57.801Z,17.27
2023-05-14T06:54:25.889Z,18.52
2023-05-14T06:56:54.250Z,14.25
2023-05-14T06:59:22.382Z,18.27
2023-05-14T07:01:50.590Z,15.43
2023-05-14T07:04:18.763Z,17.98
2023-05-14T07:06:48.233Z,16.52
2023-05-14T07:09:17.296Z,15.80
2023-05-14T07:11:45.478Z,15.15
2023-05-14T07:14:13.826Z,14.52
2023-05-14T07:16:42.801Z,15.55
2023-05-14T07:19:11.127Z,14.73
2023-05-14T07:21:39.388Z,15.00
2023-05-14T07:24:09.217Z,14.00
2023-05-14T07:26:37.244Z,15.57
2023-05-14T07:29:05.456Z,14.60
2023-05-14T07:31:34.013Z,14.98
2023-05-14T07:34:02.117Z,11.90
2023-05-14T07:36:30.254Z,16.45
2023-05-14T07:39:01.548Z,14.90
2023-05-14T07:41:31.069Z,12.80
2023-05-14T07:43:59.117Z,13.07
2023-05-14T07:46:27.241Z,11.00
2023-05-14T07:48:55.901Z,13.15
2023-05-14T07:51:24.187Z,12.38
2023-05-14T07:53:52.266Z,12.93
2023-05-14T07:56:20.858Z,11.98
2023-05-14T07:58:51.831Z,10.63
2023-05-14T08:01:19.924Z,9.43
2023-05-14T08:03:48.243Z,12.38
2023-05-14T08:06:16.436Z,9.85
2023-05-14T08:08:44.650Z,10.88
2023-05-14T08:11:15.822Z,11.25
2023-05-14T08:13:46.194Z,10.40
2023-05-14T08:16:15.783Z,12.38
2023-05-14T08:18:43.965Z,10.75
2023-05-14T08:21:12.120Z,10.27
2023-05-14T08:23:40.152Z,10.90
2023-05-14T08:26:08.671Z,10.13
2023-05-14T08:28:36.703Z,8.93
2023-05-14T08:31:05.107Z,9.15
2023-05-14T08:33:34.644Z,10.27
2023-05-14T08:36:02.715Z,9.77
2023-05-14T08:38:30.894Z,12.25
2023-05-14T08:40:59.704Z,9.63
2023-05-14T08:43:31.876Z,9.77
2023-05-14T08:46:02.542Z,8.52
2023-05-14T08:48:34.972Z,10.07
2023-05-14T08:51:03.498Z,8.98
2023-05-14T08:53:32.367Z,7.65
2023-05-14T08:56:02.738Z,9.25
2023-05-14T08:58:30.816Z,6.43
2023-05-14T09:00:58.946Z,8.18
2023-05-14T09:03:27.119Z,7.13
2023-05-14T09:05:59.864Z,8.70
2023-05-14T09:08:28.643Z,7.18
2023-05-14T09:10:56.716Z,8.00
2023-05-14T09:13:25.820Z,6.95
2023-05-14T09:15:56.657Z,6.15
2023-05-14T09:18:27.668Z,8.02
2023-05-14T09:20:57.359Z,8.68
2023-05-14T09:23:27.149Z,6.95
2023-05-14T09:25:55.331Z,7.28
2023-05-14T09:28:24.644Z,7.05
2023-05-14T09:30:52.825Z,9.18
2023-05-14T09:33:28.348Z,6.57
2023-05-14T09:36:02.333Z,7.07
2023-05-14T09:38:30.985Z,7.07
2023-05-14T09:40:59.710Z,7.32
2023-05-14T09:43:30.518Z,6.80
2023-05-14T09:45:58.659Z,10.30
2023-05-14T09:48:27.003Z,7.80
2023-05-14T09:50:55.129Z,7.30
2023-05-14T09:53:24.643Z,9.95
2023-05-14T09:55:52.819Z,8.95
2023-05-14T09:58:20.958Z,9.80
2023-05-14T10:00:49.382Z,8.60
2023-05-14T10:03:19.864Z,8.77
2023-05-14T10:05:51.124Z,9.20
2023-05-14T10:08:26.756Z,7.65
2023-05-14T10:10:56.353Z,8.80
2023-05-14T10:13:33.017Z,7.82
2023-05-14T10:16:09.566Z,9.85
2023-05-14T10:18:42.210Z,10.10
2023-05-14T10:23:42.165Z,7.93
2023-05-14T10:26:11.590Z,8.90
2023-05-14T10:28:39.925Z,8.02
2023-05-14T10:31:10.759Z,8.40
2023-05-14T10:33:50.313Z,6.65
2023-05-14T10:36:19.687Z,8.23
2023-05-14T10:38:57.107Z,8.13
2023-05-14T10:41:25.423Z,7.07
2023-05-14T10:43:53.739Z,6.25
2023-05-14T10:46:25.279Z,8.02
2023-05-14T10:48:53.411Z,8.05
2023-05-14T10:51:23.111Z,6.18
2023-05-14T10:53:53.714Z,6.07
2023-05-14T10:56:22.358Z,6.20
2023-05-14T10:58:51.384Z,6.45
2023-05-14T11:01:19.488Z,7.13
2023-05-14T11:03:48.132Z,5.35
2023-05-14T11:06:16.963Z,5.55
2023-05-14T11:08:46.616Z,5.78
2023-05-14T11:11:19.230Z,5.00
2023-05-14T11:16:23.436Z,7.22
2023-05-14T11:19:01.956Z,9.57
2023-05-14T11:21:30.390Z,5.20
2023-05-14T11:23:58.541Z,5.50
2023-05-14T11:26:28.111Z,5.15
2023-05-14T11:28:56.359Z,5.45
2023-05-14T11:31:24.765Z,5.70
2023-05-14T11:33:53.777Z,4.20
2023-05-14T11:36:21.927Z,7.85
2023-05-14T11:38:52.222Z,6.15
2023-05-14T11:41:21.612Z,5.22
2023-05-14T11:43:51.440Z,6.00
2023-05-14T11:46:19.979Z,7.20
2023-05-14T11:48:48.690Z,6.80
2023-05-14T11:51:16.940Z,6.55
2023-05-14T11:53:46.698Z,5.45
2023-05-14T11:56:14.756Z,8.07
2023-05-14T11:58:48.411Z,6.13
2023-05-14T12:01:18.077Z,6.10
2023-05-14T12:03:46.573Z,8.30
2023-05-14T12:06:14.704Z,5.63
2023-05-14T12:08:42.851Z,7.22
2023-05-14T12:11:10.921Z,6.97
2023-05-14T12:13:41.483Z,7.75
2023-05-14T12:16:11.914Z,5.70
2023-05-14T12:18:41.553Z,5.45
2023-05-14T12:21:10.049Z,5.47
2023-05-14T12:23:40.173Z,6.18
2023-05-14T12:26:10.243Z,4.43
2023-05-14T12:28:43.390Z,4.22
2023-05-14T12:31:13.083Z,6.45
2023-05-14T12:33:42.528Z,5.50
2023-05-14T12:36:21.150Z,5.03
2023-05-14T12:38:50.064Z,7.80
2023-05-14T12:41:18.671Z,5.10
2023-05-14T12:43:49.267Z,5.55
2023-05-14T12:46:17.636Z,7.05
2023-05-14T12:48:52.378Z,5.47
2023-05-14T12:51:21.535Z,3.65
2023-05-14T12:53:49.669Z,5.78
2023-05-14T12:56:21.425Z,5.63
2023-05-14T12:58:49.557Z,4.63
2023-05-14T13:01:20.144Z,2.97
2023-05-14T13:03:49.671Z,4.43
2023-05-14T13:06:18.126Z,5.32
2023-05-14T13:08:46.262Z,4.55
2023-05-14T13:11:14.358Z,7.13
2023-05-14T13:13:42.418Z,4.88
2023-05-14T13:16:11.346Z,5.00
2023-05-14T13:18:39.489Z,5.60
2023-05-14T13:21:08.998Z,5.20
2023-05-14T13:23:37.113Z,5.03
2023-05-14T13:26:05.195Z,4.70
2023-05-14T13:28:33.239Z,3.85
2023-05-14T13:31:07.042Z,4.90
2023-05-14T13:33:37.133Z,5.47
2023-05-14T13:36:06.128Z,4.57
2023-05-14T13:38:35.586Z,5.57
2023-05-14T13:41:03.994Z,7.47
2023-05-14T13:43:33.257Z,6.00
2023-05-14T13:46:01.875Z,6.10
2023-05-14T13:48:31.079Z,7.35
2023-05-14T13:50:59.453Z,8.45
2023-05-14T13:53:27.876Z,7.35
2023-05-14T13:55:58.510Z,8.32
2023-05-14T13:58:26.832Z,6.22
2023-05-14T14:00:56.383Z,8.10
2023-05-14T14:03:24.533Z,8.10
2023-05-14T14:05:52.780Z,6.97
2023-05-14T14:08:23.960Z,6.47
2023-05-14T14:10:54.660Z,7.38
2023-05-14T14:13:24.562Z,4.38
2023-05-14T14:15:53.087Z,6.07
2023-05-14T14:18:21.226Z,8.85
2023-05-14T14:20:49.359Z,7.07
2023-05-14T14:23:17.517Z,6.10
2023-05-14T14:25:45.645Z,6.95
2023-05-14T14:28:13.749Z,5.15
2023-05-14T14:30:43.934Z,5.38
2023-05-14T14:33:12.453Z,7.28
2023-05-14T14:35:40.562Z,6.85
2023-05-14T14:38:08.610Z,6.65
2023-05-14T14:40:39.191Z,7.30
2023-05-14T14:43:07.266Z,9.80
2023-05-14T14:45:35.432Z,7.95
2023-05-14T14:48:31.524Z,8.90
2023-05-14T14:51:00.069Z,9.25
2023-05-14T14:53:28.401Z,6.93
2023-05-14T14:55:57.219Z,8.57
2023-05-14T14:58:26.209Z,11.75
2023-05-14T15:00:56.396Z,7.10
2023-05-14T15:03:26.207Z,6.93
2023-05-14T15:05:55.868Z,7.82
2023-05-14T15:08:27.504Z,7.68
2023-05-14T15:10:55.728Z,7.57
2023-05-14T15:13:24.622Z,20.52
2023-05-14T15:15:53.051Z,9.65
2023-05-14T15:18:21.226Z,7.15
2023-05-14T15:20:49.502Z,9.57
2023-05-14T15:23:18.989Z,7.55
2023-05-14T15:25:47.100Z,9.65
2023-05-14T15:28:15.416Z,7.55
2023-05-14T15:30:43.445Z,10.63
2023-05-14T15:33:12.088Z,6.22
2023-05-14T15:35:40.490Z,7.65
2023-05-14T15:38:08.558Z,9.15
2023-05-14T15:40:37.982Z,7.47
2023-05-14T15:43:09.059Z,7.13
2023-05-14T15:45:37.149Z,6.13
2023-05-14T15:48:05.515Z,5.32
2023-05-14T15:50:33.590Z,9.00
2023-05-14T15:53:01.876Z,7.88
2023-05-14T15:55:29.984Z,8.38
2023-05-14T15:57:59.417Z,9.18
2023-05-14T16:00:30.503Z,5.43
2023-05-14T16:02:58.695Z,7.88
2023-05-14T16:05:30.470Z,5.47
2023-05-14T16:07:58.626Z,6.47
2023-05-14T16:10:26.837Z,10.13
2023-05-14T16:12:55.249Z,6.60
2023-05-14T16:15:24.723Z,8.77
2023-05-14T16:17:52.979Z,8.00
2023-05-14T16:20:21.368Z,7.72
2023-05-14T16:22:49.556Z,9.90
2023-05-14T16:25:18.732Z,6.03
2023-05-14T16:27:46.926Z,8.60
2023-05-14T16:30:15.121Z,7.00
2023-05-14T16:32:48.498Z,8.18
2023-05-14T16:35:16.811Z,6.07
2023-05-14T16:37:44.968Z,7.72
2023-05-14T16:40:16.162Z,5.65
2023-05-14T16:42:45.473Z,5.43
2023-05-14T16:45:14.538Z,7.97
2023-05-14T16:47:47.062Z,7.78
2023-05-14T16:50:17.712Z,8.48
2023-05-14T16:52:45.776Z,8.35
2023-05-14T16:55:13.884Z,7.78
2023-05-14T16:57:43.804Z,7.25
2023-05-14T17:00:13.475Z,7.90
2023-05-14T17:02:41.588Z,7.82
2023-05-14T17:05:11.448Z,9.23
2023-05-14T17:07:40.025Z,8.40
2023-05-14T17:10:08.978Z,6.65
2023-05-14T17:12:37.092Z,7.20
2023-05-14T17:15:06.228Z,6.00
2023-05-14T17:17:34.623Z,7.53
2023-05-14T17:20:05.587Z,7.13
2023-05-14T17:22:35.639Z,7.97
2023-05-14T17:25:03.732Z,8.98
2023-05-14T17:27:34.560Z,6.50
2023-05-14T17:30:03.468Z,9.52
2023-05-14T17:32:31.888Z,7.75
2023-05-14T17:35:00.048Z,5.88
2023-05-14T17:37:28.284Z,7.82
2023-05-14T17:39:57.752Z,8.70
2023-05-14T17:42:25.835Z,10.82
2023-05-14T17:44:54.256Z,10.55
2023-05-14T17:47:22.577Z,9.38
2023-05-14T17:49:50.966Z,8.75
2023-05-14T17:52:19.208Z,7.00
2023-05-14T17:54:47.588Z,6.75
2023-05-14T17:57:17.046Z,7.60
2023-05-14T17:59:45.310Z,11.00
2023-05-14T18:02:13.462Z,7.93
2023-05-14T18:04:41.548Z,10.93
2023-05-14T18:07:09.716Z,8.93
2023-05-14T18:09:37.829Z,10.77
2023-05-14T18:12:09.820Z,9.30
2023-05-14T18:14:39.290Z,14.32
2023-05-14T18:17:07.439Z,12.43
2023-05-14T18:19:35.558Z,11.75
2023-05-14T18:22:03.622Z,10.32
2023-05-14T18:24:31.620Z,12.63
2023-05-14T18:27:00.557Z,12.05
2023-05-14T18:29:28.687Z,11.52
2023-05-14T18:31:58.130Z,12.35
2023-05-14T18:34:26.394Z,11.88
2023-05-14T18:36:54.481Z,10.05
2023-05-14T18:39:22.504Z,9.77
2023-05-14T18:41:50.662Z,14.07
2023-05-14T18:44:18.878Z,11.43
2023-05-14T18:46:47.144Z,12.85
2023-05-14T18:49:16.619Z,12.93
2023-05-14T18:51:44.815Z,13.90
2023-05-14T18:54:12.888Z,12.63
2023-05-14T18:56:46.124Z,12.52
2023-05-14T18:59:15.597Z,13.45
2023-05-14T19:01:43.750Z,13.00
2023-05-14T19:04:11.809Z,12.20
2023-05-14T19:06:41.420Z,14.77
2023-05-14T19:09:09.534Z,12.52
2023-05-14T19:11:37.628Z,13.82
2023-05-14T19:14:05.648Z,12.95
2023-05-14T19:16:33.919Z,14.98
2023-05-14T19:19:02.047Z,14.75
2023-05-14T19:21:30.195Z,10.57
2023-05-14T19:23:59.720Z,18.25
2023-05-14T19:26:27.972Z,13.73
2023-05-14T19:28:58.592Z,13.27
2023-05-14T19:31:27.109Z,13.27
2023-05-14T19:33:55.320Z,14.63
2023-05-14T19:36:23.426Z,15.52
2023-05-14T19:38:51.658Z,13.18
2023-05-14T19:41:21.675Z,11.98
2023-05-14T19:43:49.762Z,10.40
2023-05-14T19:46:17.858Z,15.30
2023-05-14T19:48:46.089Z,12.02
2023-05-14T19:51:14.116Z,11.45
2023-05-14T19:53:42.218Z,17.10
2023-05-14T19:56:10.419Z,12.15
2023-05-14T19:58:39.915Z,13.82
2023-05-14T20:01:12.142Z,12.25
2023-05-14T20:03:40.590Z,11.77
2023-05-14T20:06:08.953Z,12.65
2023-05-14T20:08:37.005Z,12.40
2023-05-14T20:11:05.060Z,12.50
2023-05-14T20:13:33.193Z,12.57
2023-05-14T20:16:02.618Z,11.82
2023-05-14T20:18:33.131Z,8.65
2023-05-14T20:21:01.340Z,11.77
2023-05-14T20:23:29.474Z,11.55
2023-05-14T20:25:57.726Z,9.93
2023-05-14T20:28:25.975Z,13.15
2023-05-14T20:30:54.861Z,12.95
2023-05-14T20:33:24.415Z,13.18
2023-05-14T20:35:52.536Z,14.23
2023-05-14T20:38:20.679Z,15.82
2023-05-14T20:40:48.918Z,13.63
2023-05-14T20:43:17.285Z,11.27
2023-05-14T20:45:45.539Z,13.30
2023-05-14T20:48:16.381Z,13.63
2023-05-14T20:50:46.441Z,12.35
2023-05-14T20:53:14.555Z,15.38
2023-05-14T20:55:42.660Z,11.63
2023-05-14T20:58:10.803Z,12.05
2023-05-14T21:00:39.202Z,10.98
2023-05-14T21:03:07.434Z,13.30
2023-05-14T21:05:35.685Z,13.40
2023-05-14T21:08:05.356Z,13.23
2023-05-14T21:10:33.540Z,14.95
2023-05-14T21:13:01.613Z,12.88
2023-05-14T21:15:30.740Z,13.98
2023-05-14T21:17:58.904Z,11.57
2023-05-14T21:20:26.978Z,14.35
2023-05-14T21:22:55.144Z,12.25
2023-05-14T21:25:25.335Z,14.73
2023-05-14T21:27:53.660Z,11.57
2023-05-14T21:30:21.762Z,13.25
2023-05-14T21:32:49.910Z,14.00
2023-05-14T21:35:18.357Z,15.48
2023-05-14T21:37:46.665Z,18.25
2023-05-14T21:40:14.835Z,13.20
2023-05-14T21:42:44.285Z,13.23
2023-05-14T21:45:12.659Z,15.30
2023-05-14T21:47:41.045Z,13.30
2023-05-14T21:50:09.876Z,14.48
2023-05-14T21:52:38.691Z,13.25
2023-05-14T21:55:07.355Z,15.88
2023-05-14T21:57:37.754Z,12.43
2023-05-14T22:00:12.631Z,17.77
2023-05-14T22:02:41.148Z,13.85
2023-05-14T22:05:09.732Z,13.80
2023-05-14T22:07:37.824Z,14.02
2023-05-14T22:10:07.055Z,14.63
2023-05-14T22:12:35.169Z,15.18
2023-05-14T22:15:03.840Z,12.80
2023-05-14T22:17:34.414Z,17.05
2023-05-14T22:20:02.775Z,16.60
2023-05-14T22:22:30.873Z,14.23
2023-05-14T22:24:58.955Z,12.82
2023-05-14T22:27:27.039Z,14.60
2023-05-14T22:29:55.265Z,15.55
2023-05-14T22:32:23.442Z,17.70
2023-05-14T22:34:56.423Z,17.35
2023-05-14T22:37:24.664Z,15.82
2023-05-14T22:39:52.780Z,13.73
2023-05-14T22:42:21.402Z,15.05
2023-05-14T22:44:49.424Z,16.90
2023-05-14T22:47:17.581Z,16.05
2023-05-14T22:49:45.671Z,17.35
2023-05-14T22:52:15.128Z,13.55
2023-05-14T22:54:43.480Z,18.83
2023-05-14T22:57:11.695Z,19.00
2023-05-14T22:59:40.215Z,16.65
2023-05-14T23:02:08.355Z,17.55
2023-05-14T23:04:36.580Z,15.90
2023-05-14T23:07:04.930Z,19.17
2023-05-14T23:09:34.357Z,16.05
2023-05-14T23:12:02.499Z,16.83
2023-05-14T23:14:30.600Z,17.23
2023-05-14T23:16:58.718Z,16.42
2023-05-14T23:19:29.775Z,17.00
2023-05-14T23:21:58.371Z,16.10
2023-05-14T23:24:26.621Z,16.30
2023-05-14T23:26:56.365Z,16.40
2023-05-14T23:29:24.474Z,16.38
2023-05-14T23:31:52.637Z,18.23
2023-05-14T23:34:22.147Z,16.23
2023-05-14T23:36:52.753Z,15.18
2023-05-14T23:39:20.939Z,16.75
2023-05-14T23:41:49.104Z,16.52
2023-05-14T23:44:18.599Z,20.08
2023-05-14T23:46:46.784Z,16.35
2023-05-14T23:49:15.037Z,16.50
2023-05-14T23:51:43.097Z,21.33
2023-05-14T23:54:11.830Z,16.75
2023-05-14T23:56:40.183Z,18.80
2023-05-14T23:59:08.550Z,18.08
